createdAt,value
2019-06-15T00:02:19.819Z,16.60
2019-06-15T00:04:50.096Z,16.50
2019-06-15T00:07:18.519Z,16.40
2019-06-15T00:09:46.958Z,16.50
2019-06-15T00:12:15.393Z,16.40
2019-06-15T00:14:43.834Z,16.50
2019-06-15T00:17:13.557Z,16.60
2019-06-15T00:19:43.506Z,16.60
2019-06-15T00:22:17.603Z,16.60
2019-06-15T00:24:48.805Z,16.60
2019-06-15T00:27:17.290Z,16.60
2019-06-15T00:29:47.287Z,16.50
2019-06-15T00:32:17.357Z,16.40
2019-06-15T00:34:47.522Z,16.40
2019-06-15T00:37:18.081Z,16.30
2019-06-15T00:39:48.074Z,16.30
2019-06-15T00:42:19.237Z,16.20
2019-06-15T00:44:49.265Z,16.20
2019-06-15T00:47:17.819Z,16.20
2019-06-15T00:49:50.687Z,16.20
2019-06-15T00:52:19.135Z,16.10
2019-06-15T00:54:50.841Z,16.20
2019-06-15T00:57:19.383Z,16.10
2019-06-15T00:59:47.812Z,16.00
2019-06-15T01:02:23.228Z,16.00
2019-06-15T01:04:54.539Z,15.90
2019-06-15T01:07:22.999Z,15.90
2019-06-15T01:09:51.416Z,15.80
2019-06-15T01:12:22.593Z,15.70
2019-06-15T01:14:51.081Z,15.70
2019-06-15T01:17:22.586Z,15.70
2019-06-15T01:19:51.159Z,15.70
2019-06-15T01:22:19.662Z,15.70
2019-06-15T01:24:48.096Z,15.60
2019-06-15T01:27:16.549Z,15.60
2019-06-15T01:29:44.975Z,15.60
2019-06-15T01:32:13.420Z,15.60
2019-06-15T01:34:42.211Z,15.60
2019-06-15T01:37:10.711Z,15.60
2019-06-15T01:39:41.412Z,15.50
2019-06-15T01:42:11.201Z,15.60
2019-06-15T01:44:40.819Z,15.50
2019-06-15T01:47:09.319Z,15.60
2019-06-15T01:49:37.810Z,15.50
2019-06-15T01:52:07.804Z,15.50
2019-06-15T01:54:36.386Z,15.50
2019-06-15T01:57:05.052Z,15.50
2019-06-15T01:59:33.563Z,15.50
2019-06-15T02:02:02.006Z,15.40
2019-06-15T02:04:31.966Z,15.30
2019-06-15T02:07:03.476Z,15.20
2019-06-15T02:09:32.012Z,15.20
2019-06-15T02:12:00.424Z,15.10
2019-06-15T02:14:31.715Z,15.10
2019-06-15T02:17:03.293Z,15.20
2019-06-15T02:19:31.782Z,15.10
2019-06-15T02:22:00.210Z,15.10
2019-06-15T02:24:28.680Z,15.10
2019-06-15T02:26:57.099Z,15.10
2019-06-15T02:29:27.697Z,15.10
2019-06-15T02:31:55.740Z,15.10
2019-06-15T02:34:24.180Z,15.00
2019-06-15T02:36:55.573Z,15.00
2019-06-15T02:39:26.109Z,15.00
2019-06-15T02:41:57.443Z,15.10
2019-06-15T02:44:25.996Z,15.10
2019-06-15T02:46:57.514Z,15.00
2019-06-15T02:49:25.962Z,14.90
2019-06-15T02:51:54.450Z,15.00
2019-06-15T02:54:24.541Z,14.90
2019-06-15T02:56:53.055Z,14.90
2019-06-15T02:59:21.510Z,14.90
2019-06-15T03:01:53.088Z,14.80
2019-06-15T03:04:21.598Z,14.80
2019-06-15T03:06:50.286Z,14.70
2019-06-15T03:09:18.850Z,14.70
2019-06-15T03:11:49.675Z,14.70
2019-06-15T03:14:17.534Z,14.60
2019-06-15T03:16:46.018Z,14.60
2019-06-15T03:19:14.442Z,14.60
2019-06-15T03:21:42.883Z,14.50
2019-06-15T03:24:11.307Z,14.40
2019-06-15T03:26:39.762Z,14.40
2019-06-15T03:29:08.247Z,14.30
2019-06-15T03:31:36.709Z,14.30
2019-06-15T03:34:05.125Z,14.20
2019-06-15T03:36:35.118Z,14.20
2019-06-15T03:39:05.283Z,14.20
2019-06-15T03:41:33.804Z,14.20
2019-06-15T03:44:02.319Z,14.20
2019-06-15T03:46:30.795Z,14.10
2019-06-15T03:48:59.215Z,14.10
2019-06-15T03:51:27.658Z,14.10
2019-06-15T03:53:56.084Z,14.10
2019-06-15T03:56:24.521Z,14.10
2019-06-15T03:58:52.958Z,14.10
2019-06-15T04:01:27.187Z,14.10
2019-06-15T04:03:57.234Z,14.20
2019-06-15T04:06:25.675Z,14.20
2019-06-15T04:08:54.135Z,14.20
2019-06-15T04:11:22.651Z,14.20
2019-06-15T04:13:52.632Z,14.30
2019-06-15T04:16:21.147Z,14.40
2019-06-15T04:18:49.577Z,14.50
2019-06-15T04:21:17.999Z,14.80
2019-06-15T04:23:46.461Z,15.30
2019-06-15T04:26:16.524Z,16.00
2019-06-15T04:28:44.971Z,16.60
2019-06-15T04:31:13.399Z,16.90
2019-06-15T04:33:41.843Z,17.20
2019-06-15T04:36:10.262Z,17.50
2019-06-15T04:38:38.724Z,17.70
2019-06-15T04:41:07.151Z,17.70
2019-06-15T04:43:35.602Z,17.80
2019-06-15T04:46:04.166Z,17.80
2019-06-15T04:48:32.673Z,17.80
2019-06-15T04:51:02.687Z,17.70
2019-06-15T04:53:31.318Z,17.60
2019-06-15T04:55:59.765Z,17.60
2019-06-15T04:58:29.968Z,17.50
2019-06-15T05:00:58.413Z,17.40
2019-06-15T05:03:26.928Z,17.30
2019-06-15T05:05:55.385Z,17.30
2019-06-15T05:08:23.797Z,17.30
2019-06-15T05:10:52.239Z,17.30
2019-06-15T05:13:22.206Z,17.30
2019-06-15T05:15:50.662Z,17.30
2019-06-15T05:18:19.147Z,17.30
2019-06-15T05:20:47.621Z,17.30
2019-06-15T05:23:16.086Z,17.30
2019-06-15T05:25:44.539Z,17.30
2019-06-15T05:28:12.983Z,17.40
2019-06-15T05:30:41.529Z,17.30
2019-06-15T05:33:10.020Z,17.30
2019-06-15T05:35:38.530Z,17.40
2019-06-15T05:38:06.940Z,17.60
2019-06-15T05:40:35.450Z,17.80
2019-06-15T05:43:04.074Z,18.00
2019-06-15T05:45:32.515Z,18.10
2019-06-15T05:48:00.944Z,18.40
2019-06-15T05:50:29.456Z,18.50
2019-06-15T05:52:57.979Z,18.50
2019-06-15T05:55:27.451Z,18.70
2019-06-15T05:57:56.016Z,18.90
2019-06-15T06:00:26.161Z,18.80
2019-06-15T06:02:54.718Z,18.70
2019-06-15T06:05:23.158Z,18.60
2019-06-15T06:07:51.609Z,18.30
2019-06-15T06:10:20.160Z,18.20
2019-06-15T06:12:48.614Z,18.10
2019-06-15T06:15:17.388Z,18.10
2019-06-15T06:17:45.827Z,18.20
2019-06-15T06:20:15.064Z,18.60
2019-06-15T06:22:43.578Z,18.70
2019-06-15T06:25:13.350Z,19.00
2019-06-15T06:27:41.800Z,19.10
2019-06-15T06:30:11.260Z,19.40
2019-06-15T06:32:39.724Z,19.70
2019-06-15T06:35:08.991Z,19.70
2019-06-15T06:37:37.450Z,19.80
2019-06-15T06:40:10.944Z,20.10
2019-06-15T06:42:39.479Z,20.10
2019-06-15T06:45:09.817Z,20.10
2019-06-15T06:47:38.432Z,20.20
2019-06-15T06:50:08.383Z,20.30
2019-06-15T06:52:36.827Z,20.80
2019-06-15T06:55:08.504Z,20.90
2019-06-15T06:57:51.110Z,21.20
2019-06-15T07:00:07.990Z,20.60
2019-06-15T07:02:36.581Z,20.50
2019-06-15T07:05:06.104Z,20.40
2019-06-15T07:07:34.733Z,20.90
2019-06-15T07:10:05.014Z,21.30
2019-06-15T07:12:33.435Z,21.40
2019-06-15T07:15:04.692Z,21.80
2019-06-15T07:17:33.724Z,21.90
2019-06-15T07:20:02.558Z,21.50
2019-06-15T07:22:31.083Z,21.30
2019-06-15T07:24:59.535Z,21.70
2019-06-15T07:27:27.964Z,22.10
2019-06-15T07:29:56.538Z,22.70
2019-06-15T07:32:24.983Z,22.40
2019-06-15T07:34:53.438Z,22.40
2019-06-15T07:37:21.859Z,22.40
2019-06-15T07:39:50.304Z,22.60
2019-06-15T07:42:18.732Z,22.60
2019-06-15T07:44:47.188Z,23.00
2019-06-15T07:47:15.623Z,23.00
2019-06-15T07:49:44.131Z,22.90
2019-06-15T07:52:12.640Z,22.60
2019-06-15T07:54:41.166Z,22.80
2019-06-15T07:57:09.595Z,22.80
2019-06-15T07:59:38.024Z,22.60
2019-06-15T08:02:06.443Z,22.90
2019-06-15T08:04:34.888Z,23.00
2019-06-15T08:07:03.380Z,22.80
2019-06-15T08:09:31.938Z,23.10
2019-06-15T08:12:00.367Z,23.50
2019-06-15T08:14:28.809Z,23.60
2019-06-15T08:16:57.258Z,23.70
2019-06-15T08:19:27.523Z,23.30
2019-06-15T08:21:55.952Z,23.60
2019-06-15T08:24:24.386Z,23.90
2019-06-15T08:26:52.889Z,23.30
2019-06-15T08:29:21.314Z,23.40
2019-06-15T08:31:52.047Z,23.40
2019-06-15T08:34:20.488Z,23.50
2019-06-15T08:36:48.939Z,23.80
2019-06-15T08:39:17.367Z,23.80
2019-06-15T08:41:45.823Z,24.30
2019-06-15T08:44:14.313Z,24.00
2019-06-15T08:46:42.756Z,24.30
2019-06-15T08:49:11.250Z,24.30
2019-06-15T08:51:39.698Z,24.20
2019-06-15T08:54:08.123Z,23.80
2019-06-15T08:56:36.580Z,23.90
2019-06-15T08:59:04.995Z,24.00
2019-06-15T09:01:33.432Z,23.90
2019-06-15T09:04:02.003Z,23.50
2019-06-15T09:06:30.514Z,24.00
2019-06-15T09:08:58.923Z,23.70
2019-06-15T09:11:27.438Z,24.00
2019-06-15T09:13:57.419Z,24.60
2019-06-15T09:16:25.990Z,24.80
2019-06-15T09:18:57.272Z,24.60
2019-06-15T09:21:24.724Z,24.80
2019-06-15T09:23:53.261Z,25.00
2019-06-15T09:26:21.845Z,25.00
2019-06-15T09:28:50.386Z,25.00
2019-06-15T09:31:18.880Z,24.60
2019-06-15T09:33:48.899Z,24.50
2019-06-15T09:36:17.488Z,24.90
2019-06-15T09:38:45.988Z,25.40
2019-06-15T09:41:14.416Z,25.10
2019-06-15T09:43:44.395Z,24.80
2019-06-15T09:46:12.828Z,24.60
2019-06-15T09:48:41.276Z,25.30
2019-06-15T09:51:09.704Z,24.50
2019-06-15T09:53:38.160Z,24.30
2019-06-15T09:56:06.645Z,24.40
2019-06-15T09:58:35.078Z,24.40
2019-06-15T10:01:03.514Z,24.50
2019-06-15T10:03:31.957Z,24.60
2019-06-15T10:06:00.446Z,24.60
2019-06-15T10:08:28.884Z,24.60
2019-06-15T10:10:57.323Z,24.60
2019-06-15T10:13:25.763Z,24.60
2019-06-15T10:15:54.196Z,24.70
2019-06-15T10:18:22.639Z,25.00
2019-06-15T10:20:52.621Z,25.10
2019-06-15T10:23:21.054Z,24.70
2019-06-15T10:25:50.541Z,24.50
2019-06-15T10:28:19.119Z,24.30
2019-06-15T10:30:47.556Z,24.80
2019-06-15T10:33:16.007Z,24.60
2019-06-15T10:35:44.454Z,25.00
2019-06-15T10:38:12.879Z,24.90
2019-06-15T10:40:41.321Z,24.50
2019-06-15T10:43:09.847Z,24.50
2019-06-15T10:45:38.293Z,24.50
2019-06-15T10:48:06.794Z,24.80
2019-06-15T10:50:35.304Z,25.10
2019-06-15T10:53:03.795Z,25.00
2019-06-15T10:55:32.269Z,25.40
2019-06-15T10:58:00.717Z,25.40
2019-06-15T11:00:29.523Z,25.50
2019-06-15T11:02:58.066Z,25.30
2019-06-15T11:05:26.538Z,25.50
2019-06-15T11:07:55.001Z,25.70
2019-06-15T11:10:42.962Z,26.00
2019-06-15T11:13:11.363Z,25.80
2019-06-15T11:15:40.737Z,26.10
2019-06-15T11:18:09.648Z,26.20
2019-06-15T11:20:38.099Z,26.50
2019-06-15T11:23:06.523Z,26.30
2019-06-15T11:25:34.979Z,26.00
2019-06-15T11:28:03.430Z,26.60
2019-06-15T11:30:32.143Z,26.90
2019-06-15T11:33:00.555Z,26.60
2019-06-15T11:35:29.093Z,26.50
2019-06-15T11:37:59.184Z,25.80
2019-06-15T11:40:27.662Z,26.10
2019-06-15T11:42:56.122Z,25.50
2019-06-15T11:45:24.552Z,25.70
2019-06-15T11:47:53.009Z,25.90
2019-06-15T11:50:21.648Z,25.50
2019-06-15T11:52:50.183Z,25.50
2019-06-15T11:55:20.051Z,25.40
2019-06-15T11:57:48.808Z,25.60
2019-06-15T12:00:30.841Z,25.20
2019-06-15T12:02:50.579Z,25.00
2019-06-15T12:05:19.004Z,25.10
2019-06-15T12:07:47.443Z,24.80
2019-06-15T12:10:16.218Z,24.80
2019-06-15T12:12:44.683Z,24.70
2019-06-15T12:15:13.336Z,25.10
2019-06-15T12:17:41.790Z,25.50
2019-06-15T12:20:10.655Z,25.70
2019-06-15T12:22:39.093Z,25.80
2019-06-15T12:25:07.855Z,25.70
2019-06-15T12:27:37.910Z,25.90
2019-06-15T12:30:08.965Z,25.50
2019-06-15T12:32:37.404Z,25.40
2019-06-15T12:35:06.925Z,25.40
2019-06-15T12:37:35.374Z,25.90
2019-06-15T12:40:08.747Z,26.20
2019-06-15T12:42:37.200Z,25.60
2019-06-15T12:45:05.891Z,25.00
2019-06-15T12:47:34.514Z,24.70
2019-06-15T12:50:04.528Z,25.00
2019-06-15T12:52:32.973Z,25.90
2019-06-15T12:55:01.477Z,26.30
2019-06-15T12:57:29.930Z,25.50
2019-06-15T12:59:58.504Z,25.10
2019-06-15T13:02:28.474Z,25.40
2019-06-15T13:04:56.952Z,25.40
2019-06-15T13:07:25.399Z,25.00
2019-06-15T13:09:53.838Z,24.60
2019-06-15T13:12:22.262Z,24.60
2019-06-15T13:14:50.745Z,25.00
2019-06-15T13:17:19.178Z,25.10
2019-06-15T13:19:47.647Z,24.60
2019-06-15T13:22:16.071Z,24.60
2019-06-15T13:24:46.079Z,24.50
2019-06-15T13:27:14.568Z,24.50
2019-06-15T13:29:43.041Z,24.30
2019-06-15T13:32:11.518Z,24.30
2019-06-15T13:34:40.031Z,24.30
2019-06-15T13:37:08.518Z,24.00
2019-06-15T13:39:37.015Z,23.80
2019-06-15T13:42:07.194Z,23.80
2019-06-15T13:44:35.628Z,24.00
2019-06-15T13:47:05.756Z,24.10
2019-06-15T13:49:34.163Z,24.40
2019-06-15T13:52:02.705Z,24.40
2019-06-15T13:54:31.206Z,25.00
2019-06-15T13:56:59.645Z,24.80
2019-06-15T13:59:28.106Z,24.30
2019-06-15T14:01:58.155Z,24.20
2019-06-15T14:04:26.584Z,24.20
2019-06-15T14:06:55.284Z,24.50
2019-06-15T14:09:23.748Z,24.30
2019-06-15T14:11:52.158Z,24.80
2019-06-15T14:14:20.686Z,24.90
2019-06-15T14:16:49.139Z,24.60
2019-06-15T14:19:17.565Z,24.30
2019-06-15T14:21:46.003Z,24.10
2019-06-15T14:24:14.492Z,23.80
2019-06-15T14:26:42.919Z,24.00
2019-06-15T14:29:11.349Z,24.40
2019-06-15T14:31:49.792Z,24.60
2019-06-15T14:34:10.003Z,24.20
2019-06-15T14:36:38.439Z,23.40
2019-06-15T14:39:07.173Z,23.00
2019-06-15T14:41:35.610Z,23.00
2019-06-15T14:44:04.294Z,22.90
2019-06-15T14:46:32.729Z,23.00
2019-06-15T14:49:01.171Z,23.00
2019-06-15T14:51:29.610Z,23.30
2019-06-15T14:53:59.043Z,23.20
2019-06-15T14:56:27.756Z,23.00
2019-06-15T14:58:56.393Z,23.10
2019-06-15T15:01:26.127Z,23.20
2019-06-15T15:03:57.061Z,23.30
2019-06-15T15:06:26.082Z,23.30
2019-06-15T15:08:56.229Z,23.40
2019-06-15T15:11:26.511Z,23.50
2019-06-15T15:13:56.198Z,23.50
2019-06-15T15:16:24.894Z,23.40
2019-06-15T15:18:53.377Z,23.20
2019-06-15T15:21:21.799Z,23.20
2019-06-15T15:23:50.244Z,23.30
2019-06-15T15:26:18.747Z,23.40
2019-06-15T15:28:47.443Z,23.60
2019-06-15T15:31:17.239Z,23.80
2019-06-15T15:33:47.733Z,23.70
2019-06-15T15:36:16.919Z,23.70
2019-06-15T15:38:46.844Z,23.80
2019-06-15T15:41:17.129Z,23.80
2019-06-15T15:43:46.356Z,23.60
2019-06-15T15:46:16.442Z,23.30
2019-06-15T15:48:46.928Z,23.20
2019-06-15T15:51:17.164Z,22.90
2019-06-15T15:53:46.704Z,22.90
2019-06-15T15:56:17.097Z,22.70
2019-06-15T15:58:47.146Z,22.50
2019-06-15T16:01:17.118Z,22.30
2019-06-15T16:03:47.555Z,22.20
2019-06-15T16:06:16.128Z,22.10
2019-06-15T16:08:47.150Z,22.20
2019-06-15T16:11:16.280Z,22.20
2019-06-15T16:13:46.176Z,22.00
2019-06-15T16:16:16.481Z,22.10
2019-06-15T16:18:46.969Z,22.10
2019-06-15T16:21:16.827Z,22.10
2019-06-15T16:23:47.048Z,22.10
2019-06-15T16:26:16.918Z,21.80
2019-06-15T16:28:46.193Z,21.70
2019-06-15T16:31:17.732Z,21.70
2019-06-15T16:33:46.508Z,21.80
2019-06-15T16:36:16.815Z,21.60
2019-06-15T16:38:47.004Z,21.40
2019-06-15T16:41:15.478Z,21.40
2019-06-15T16:43:45.970Z,21.30
2019-06-15T16:46:14.094Z,21.10
2019-06-15T16:48:42.520Z,21.20
2019-06-15T16:51:11.128Z,21.20
2019-06-15T16:53:39.542Z,21.20
2019-06-15T16:56:07.986Z,21.00
2019-06-15T16:58:36.462Z,21.00
2019-06-15T17:01:06.517Z,21.00
2019-06-15T17:03:36.703Z,21.00
2019-06-15T17:06:07.032Z,21.00
2019-06-15T17:08:36.764Z,21.00
2019-06-15T17:11:06.817Z,21.00
2019-06-15T17:13:37.022Z,21.00
2019-06-15T17:16:06.081Z,20.90
2019-06-15T17:18:36.459Z,21.00
2019-06-15T17:21:07.105Z,21.10
2019-06-15T17:23:35.425Z,21.00
2019-06-15T17:26:06.274Z,21.10
2019-06-15T17:28:34.032Z,21.10
2019-06-15T17:31:06.045Z,21.10
2019-06-15T17:33:38.132Z,21.00
2019-06-15T17:36:06.585Z,21.00
2019-06-15T17:38:37.006Z,21.00
2019-06-15T17:41:05.050Z,20.90
2019-06-15T17:43:33.486Z,20.90
2019-06-15T17:46:02.056Z,20.80
2019-06-15T17:48:30.486Z,20.80
2019-06-15T17:50:58.941Z,20.70
2019-06-15T17:53:27.367Z,20.70
2019-06-15T17:55:56.189Z,20.70
2019-06-15T17:58:26.188Z,20.70
2019-06-15T18:00:57.282Z,20.60
2019-06-15T18:03:26.091Z,20.50
2019-06-15T18:05:54.683Z,20.50
2019-06-15T18:08:23.191Z,20.40
2019-06-15T18:10:51.619Z,20.40
2019-06-15T18:13:20.100Z,20.30
2019-06-15T18:15:48.530Z,20.30
2019-06-15T18:18:17.254Z,20.30
2019-06-15T18:20:45.880Z,20.20
2019-06-15T18:23:17.025Z,20.10
2019-06-15T18:25:46.917Z,20.00
2019-06-15T18:28:17.452Z,20.00
2019-06-15T18:30:46.615Z,20.00
2019-06-15T18:33:16.558Z,19.90
2019-06-15T18:35:47.578Z,19.90
2019-06-15T18:38:15.681Z,19.80
2019-06-15T18:40:44.091Z,19.80
2019-06-15T18:43:12.533Z,19.70
2019-06-15T18:45:40.965Z,19.70
2019-06-15T18:48:09.720Z,19.70
2019-06-15T18:50:40.394Z,19.60
2019-06-15T18:53:09.686Z,19.50
2019-06-15T18:55:38.875Z,19.40
2019-06-15T18:58:07.370Z,19.40
2019-06-15T19:00:37.068Z,19.30
2019-06-15T19:03:06.932Z,19.20
2019-06-15T19:05:37.254Z,19.10
2019-06-15T19:08:06.802Z,19.00
2019-06-15T19:10:36.833Z,18.90
2019-06-15T19:13:07.440Z,18.90
2019-06-15T19:15:37.448Z,18.60
2019-06-15T19:18:07.474Z,18.50
2019-06-15T19:20:37.272Z,18.40
2019-06-15T19:23:06.995Z,18.30
2019-06-15T19:25:36.511Z,18.20
2019-06-15T19:28:05.465Z,18.20
2019-06-15T19:30:37.038Z,18.10
2019-06-15T19:33:04.566Z,18.00
2019-06-15T19:35:36.036Z,17.90
2019-06-15T19:38:06.046Z,17.80
2019-06-15T19:40:33.911Z,17.60
2019-06-15T19:43:02.459Z,17.40
2019-06-15T19:45:31.039Z,17.40
2019-06-15T19:47:59.462Z,17.30
2019-06-15T19:50:27.914Z,17.30
2019-06-15T19:52:56.589Z,17.20
2019-06-15T19:55:26.876Z,17.00
2019-06-15T19:57:56.879Z,16.90
2019-06-15T20:00:27.023Z,16.80
2019-06-15T20:02:57.293Z,16.70
2019-06-15T20:05:28.594Z,16.60
2019-06-15T20:07:57.046Z,16.60
2019-06-15T20:10:26.675Z,16.60
2019-06-15T20:12:56.238Z,16.50
2019-06-15T20:15:26.293Z,16.50
2019-06-15T20:17:56.988Z,16.50
2019-06-15T20:20:26.630Z,16.60
2019-06-15T20:22:56.110Z,16.60
2019-06-15T20:25:26.834Z,16.70
2019-06-15T20:27:56.365Z,16.70
2019-06-15T20:30:25.016Z,16.80
2019-06-15T20:32:53.569Z,16.90
2019-06-15T20:35:22.012Z,17.00
2019-06-15T20:37:50.493Z,17.00
2019-06-15T20:40:19.013Z,17.10
2019-06-15T20:42:47.451Z,17.20
2019-06-15T20:45:16.410Z,17.10
2019-06-15T20:47:47.772Z,17.10
2019-06-15T20:50:25.481Z,17.10
2019-06-15T20:52:47.278Z,17.00
2019-06-15T20:55:16.355Z,16.90
2019-06-15T20:57:46.110Z,16.80
2019-06-15T21:00:16.738Z,16.60
2019-06-15T21:02:45.349Z,16.50
2019-06-15T21:05:32.618Z,16.50
2019-06-15T21:07:46.683Z,16.40
2019-06-15T21:10:16.084Z,16.20
2019-06-15T21:12:46.907Z,16.30
2019-06-15T21:15:15.459Z,16.30
2019-06-15T21:17:46.488Z,16.30
2019-06-15T21:20:16.219Z,16.30
2019-06-15T21:22:46.507Z,16.30
2019-06-15T21:25:17.379Z,16.30
2019-06-15T21:27:47.405Z,16.30
2019-06-15T21:30:16.567Z,16.20
2019-06-15T21:32:46.640Z,16.10
2019-06-15T21:35:15.307Z,16.20
2019-06-15T21:37:46.290Z,16.10
2019-06-15T21:40:15.970Z,16.10
2019-06-15T21:42:46.740Z,16.10
2019-06-15T21:45:14.844Z,16.00
2019-06-15T21:47:43.272Z,16.00
2019-06-15T21:50:12.396Z,15.90
2019-06-15T21:52:40.825Z,15.80
2019-06-15T21:55:09.899Z,15.80
2019-06-15T21:57:38.336Z,15.80
2019-06-15T22:00:17.190Z,15.70
2019-06-15T22:02:44.183Z,15.70
2019-06-15T22:05:13.284Z,15.70
2019-06-15T22:07:41.776Z,15.70
2019-06-15T22:10:10.454Z,15.70
2019-06-15T22:12:38.884Z,15.70
2019-06-15T22:15:09.269Z,15.70
2019-06-15T22:17:37.779Z,15.70
2019-06-15T22:20:06.954Z,15.60
2019-06-15T22:22:36.419Z,15.50
2019-06-15T22:25:06.885Z,15.40
2019-06-15T22:27:36.259Z,15.30
2019-06-15T22:30:07.658Z,15.30
2019-06-15T22:32:36.243Z,15.30
2019-06-15T22:35:09.347Z,15.30
2019-06-15T22:37:37.958Z,15.30
2019-06-15T22:40:08.192Z,15.40
2019-06-15T22:42:36.788Z,15.40
2019-06-15T22:45:07.309Z,15.40
2019-06-15T22:47:36.288Z,15.30
2019-06-15T22:50:06.920Z,15.30
2019-06-15T22:52:36.435Z,15.30
2019-06-15T22:55:08.823Z,15.30
2019-06-15T22:57:37.325Z,15.30
2019-06-15T23:00:08.008Z,15.20
2019-06-15T23:02:36.994Z,15.10
2019-06-15T23:05:06.490Z,15.00
2019-06-15T23:07:36.344Z,14.90
2019-06-15T23:10:08.160Z,14.80
2019-06-15T23:12:37.363Z,14.80
2019-06-15T23:15:07.880Z,14.80
2019-06-15T23:17:37.234Z,14.70
2019-06-15T23:20:07.906Z,14.70
2019-06-15T23:22:36.428Z,14.60
2019-06-15T23:25:06.132Z,14.70
2019-06-15T23:27:34.815Z,14.60
2019-06-15T23:30:06.773Z,14.50
2019-06-15T23:32:35.139Z,14.60
2019-06-15T23:35:06.524Z,14.60
2019-06-15T23:37:37.580Z,14.60
2019-06-15T23:40:19.998Z,14.60
2019-06-15T23:42:49.879Z,14.60
2019-06-15T23:45:19.807Z,14.60
2019-06-15T23:47:48.687Z,14.60
2019-06-15T23:50:18.734Z,14.60
2019-06-15T23:52:48.221Z,14.60
2019-06-15T23:55:18.890Z,14.60
2019-06-15T23:57:47.492Z,14.60
